Buoy 13526

sailwx.info

Track history (hours):
 
Tides and Currents Weather Stations Pressure Air Temp Water Temp Dewpoint Dewpoint Depression Visibility Wind Speed Wind Dir Waves Ship Positions

Drifting buoy 13526

Last reported at 2015-Mar-28 17:52 UTC. Time now 2015-Mar-28 18:49 UTC.
Position N 26°37' W 045°60'.

Water temperature 22.5 ° C

Date/timePositionNaut miles runAvg speedWind from/ knotsBaromVisibWave heightAir tempDewpointWater temp
2015-Mar-28 17:52N 26°37' W 045°60'1 0.4 22.5
2015-Mar-28 16:10N 26°37' W 046°00'1 0.8 22.5
2015-Mar-28 14:18N 26°38' W 045°59'1 0.7 22.4
2015-Mar-28 13:30N 26°38' W 045°59'0 0.4 22.4
2015-Mar-28 12:33N 26°38' W 045°58'0 5.6 22.4
2015-Mar-28 12:29N 26°39' W 045°59'1 1.0 22.4
2015-Mar-28 11:44N 26°39' W 045°59'0 0.0 22.4
2015-Mar-28 09:54N 26°39' W 045°59'0 0.9 22.4
2015-Mar-28 09:43N 26°39' W 045°59'0 4.1 22.4
2015-Mar-28 09:39N 26°39' W 045°59'0 1.5 22.4
2015-Mar-28 09:29N 26°40' W 045°58'0 6.5 22.4
2015-Mar-28 09:26N 26°40' W 045°58'1 6.5 22.4
2015-Mar-28 09:20N 26°40' W 045°59'0 0.0 22.4
2015-Mar-28 08:16N 26°40' W 045°59'0 0.8 22.4
2015-Mar-28 08:00N 26°40' W 045°59'0 0.6 22.3
2015-Mar-28 07:44N 26°40' W 045°59'0 0.0 22.3
2015-Mar-28 06:28N 26°40' W 045°59'0 3.9 22.3
2015-Mar-28 06:22N 26°40' W 045°58'0 0.0 22.3
2015-Mar-28 04:47N 26°40' W 045°58'1 0.4 22.3
2015-Mar-28 01:54N 26°41' W 045°57'0 7.9 22.3
2015-Mar-28 01:51N 26°41' W 045°57'0 0.0 22.3
2015-Mar-28 01:06N 26°41' W 045°57'0 2.6 22.3
2015-Mar-28 01:03N 26°41' W 045°57'0 0.1 22.3
2015-Mar-28 00:10N 26°41' W 045°57'1 1.1 22.3
2015-Mar-27 23:27N 26°42' W 045°57'112.1 22.3
2015-Mar-27 23:22N 26°42' W 045°56'0 0.0 22.3
2015-Mar-27 23:16N 26°42' W 045°56'0 0.0 22.3
2015-Mar-27 22:33N 26°42' W 045°56'0 0.0 22.3
2015-Mar-27 22:29N 26°42' W 045°56'0 0.4 22.3
2015-Mar-27 21:23N 26°43' W 045°56'0 0.0 22.3
2015-Mar-27 21:01N 26°43' W 045°56'138.8
2015-Mar-27 21:00N 26°43' W 045°57'0 0.0 22.3
2015-Mar-27 19:44N 26°43' W 045°57'1 1.3 22.3
2015-Mar-27 19:21N 26°43' W 045°56'0 0.0 22.3
2015-Mar-27 19:17N 26°43' W 045°56'1 0.5 22.3
2015-Mar-27 18:03N 26°43' W 045°55'0 0.8 22.3
2015-Mar-27 17:36N 26°43' W 045°55'0 0.0 22.3
2015-Mar-27 16:22N 26°43' W 045°55'1 0.6 22.4
2015-Mar-27 14:38N 26°43' W 045°54'0 0.0 22.4
2015-Mar-27 13:52N 26°43' W 045°54'1 5.0 22.4
2015-Mar-27 13:44N 26°43' W 045°53'1 1.6 22.4
2015-Mar-27 12:55N 26°43' W 045°52'126.4 22.4
2015-Mar-27 12:52N 26°43' W 045°53'0 0.0 22.4
2015-Mar-27 12:09N 26°43' W 045°53'110.4 22.4
2015-Mar-27 12:04N 26°44' W 045°53'0 0.0 22.4
2015-Mar-27 11:15N 26°44' W 045°53'0 9.3 22.4
2015-Mar-27 11:12N 26°44' W 045°52'0 0.0 22.4
2015-Mar-27 10:25N 26°44' W 045°52'1 2.1 22.4
2015-Mar-27 10:09N 26°43' W 045°52'0 4.6 22.4
2015-Mar-27 10:03N 26°43' W 045°52'0 0.0 22.4
2015-Mar-27 09:40N 26°43' W 045°52'1 5.2 22.3
2015-Mar-27 09:33N 26°43' W 045°52'0 0.0 22.3
2015-Mar-27 08:47N 26°43' W 045°52'1 1.7 22.2
2015-Mar-27 07:55N 26°44' W 045°51'014.4 22.2
2015-Mar-27 07:53N 26°43' W 045°51'1 0.7 22.1
2015-Mar-27 07:04N 26°44' W 045°50'0 0.9 22.1
2015-Mar-27 06:41N 26°44' W 045°50'1 9.5 22.0
2015-Mar-27 06:33N 26°44' W 045°49'0 0.0 22.0
2015-Mar-27 04:58N 26°44' W 045°49'2 0.8 21.9
2015-Mar-27 02:10N 26°46' W 045°47'1 0.6 21.7
2015-Mar-27 00:34N 26°47' W 045°47'1 0.4 21.7
2015-Mar-26 23:13N 26°47' W 045°47'0 0.6 21.7
2015-Mar-26 22:55N 26°47' W 045°47'222.7 21.7
2015-Mar-26 22:50N 26°49' W 045°46'1 0.8 21.7
2015-Mar-26 21:07N 26°50' W 045°47'0 0.0 21.7
2015-Mar-26 19:55N 26°50' W 045°47'0 0.0 21.8
2015-Mar-26 19:52N 26°50' W 045°47'119.9 21.8
2015-Mar-26 19:49N 26°50' W 045°46'1 0.2 21.8
2015-Mar-26 14:07N 26°50' W 045°47'1 0.1 21.7
2015-Mar-26 08:05N 26°51' W 045°48'0 0.3 21.7
2015-Mar-26 07:09N 26°51' W 045°48'1 0.3 21.7
2015-Mar-26 05:09N 26°51' W 045°48'1 9.7 21.7
2015-Mar-26 05:03N 26°52' W 045°47'0 0.0 21.7
2015-Mar-26 01:45N 26°52' W 045°47'1 0.7 22.0
2015-Mar-26 00:04N 26°52' W 045°48'1 1.4 22.2
2015-Mar-25 23:09N 26°51' W 045°47'0 0.0 22.2
2015-Mar-25 22:06N 26°51' W 045°47'1 0.4 22.3
2015-Mar-25 20:34N 26°51' W 045°48'0 0.6 22.4
2015-Mar-25 19:43N 26°51' W 045°47'0 0.0 22.6
2015-Mar-25 18:53N 26°51' W 045°47'1 1.6 22.6
2015-Mar-25 18:24N 26°51' W 045°46'0 8.0 22.6
2015-Mar-25 18:21N 26°52' W 045°47'1 1.8 22.6
2015-Mar-25 18:01N 26°51' W 045°47'0 0.3 22.6
2015-Mar-25 16:45N 26°51' W 045°47'1 8.8 22.5
2015-Mar-25 16:39N 26°51' W 045°46'0 0.1 22.5
2015-Mar-25 15:01N 26°51' W 045°46'0 0.2 22.2
2015-Mar-25 14:32N 26°51' W 045°46'0 0.0 22.2
2015-Mar-25 12:49N 26°51' W 045°46'1 0.7 22.0
2015-Mar-25 11:56N 26°52' W 045°45'0 6.5
2015-Mar-25 11:53N 26°52' W 045°45'0 0.1 21.9
2015-Mar-25 10:02N 26°52' W 045°45'0 0.0 21.8
2015-Mar-25 09:59N 26°52' W 045°45'0 1.0 21.8
2015-Mar-25 09:47N 26°52' W 045°45'0 0.4 21.8
2015-Mar-25 09:16N 26°52' W 045°45'1 4.7 21.8
2015-Mar-25 09:09N 26°52' W 045°44'1 0.7 21.8
2015-Mar-25 08:18N 26°52' W 045°44'0 7.3 21.8
2015-Mar-25 08:15N 26°52' W 045°44'0 0.0 21.8
2015-Mar-25 07:33N 26°52' W 045°44'0 0.0 21.8
2015-Mar-25 07:04N 26°52' W 045°44'0 0.0 21.8
2015-Mar-25 06:55N 26°52' W 045°44'2 6.6 21.8
2015-Mar-25 06:40N 26°53' W 045°42'0 0.0 21.8
2015-Mar-25 05:22N 26°53' W 045°42'0 0.0 21.9
2015-Mar-25 05:14N 26°53' W 045°42'0 0.0 21.9
2015-Mar-25 03:40N 26°53' W 045°42'1 0.4 22.0
2015-Mar-25 01:18N 26°54' W 045°43'0 4.3 22.2
2015-Mar-25 01:12N 26°55' W 045°43'0 0.0 22.2
2015-Mar-25 00:30N 26°55' W 045°43'1 0.3 22.2
2015-Mar-24 20:56N 26°55' W 045°42'0 0.0 22.3
2015-Mar-24 19:56N 26°55' W 045°42'124.0 22.3
2015-Mar-24 19:53N 26°55' W 045°43'3 1.7 22.3
2015-Mar-24 18:13N 26°56' W 045°40'0 0.0 22.3
2015-Mar-24 16:55N 26°56' W 045°40'1 0.3 22.3
2015-Mar-24 15:14N 26°56' W 045°40'0 0.1 22.1
2015-Mar-24 13:59N 26°56' W 045°40'0 0.0 22.0
2015-Mar-24 13:09N 26°56' W 045°40'2 0.6 22.0
2015-Mar-24 10:09N 26°58' W 045°38'1 0.4 21.9
2015-Mar-24 08:40N 26°58' W 045°38'1 0.8 21.9
2015-Mar-24 08:01N 26°59' W 045°38'1 0.7 21.9
2015-Mar-24 07:09N 26°59' W 045°38'0 0.9 21.9
2015-Mar-24 06:52N 26°59' W 045°38'1 0.1 21.9
2015-Mar-24 01:38N 26°60' W 045°38'1 0.7 22.0
2015-Mar-24 00:50N 27°00' W 045°37'1 1.1 22.0
2015-Mar-23 23:55N 26°60' W 045°38'2 2.4 22.0
2015-Mar-23 23:09N 27°00' W 045°36'0 0.0 22.1
2015-Mar-23 23:05N 27°00' W 045°36'0 0.1 22.1
2015-Mar-23 20:07N 27°00' W 045°36'0 0.0 22.2
2015-Mar-23 19:48N 27°00' W 045°36'1 0.6 22.2
2015-Mar-23 18:44N 27°00' W 045°36'1 0.7 22.2
2015-Mar-23 17:07N 27°01' W 045°35'2 0.5 22.2
2015-Mar-23 13:36N 27°02' W 045°33'0 0.2 22.0
2015-Mar-23 11:55N 27°01' W 045°33'1 8.4 22.0
2015-Mar-23 11:51N 27°02' W 045°33'2 1.8 22.0
2015-Mar-23 10:59N 27°02' W 045°32'0 0.0 22.0
2015-Mar-23 10:06N 27°02' W 045°32'0 0.2 21.9
2015-Mar-23 09:09N 27°02' W 045°32'0 1.2 21.9
2015-Mar-23 08:47N 27°03' W 045°32'1 0.5 21.9
2015-Mar-23 06:59N 27°03' W 045°31'0 0.0 21.9
2015-Mar-23 05:42N 27°03' W 045°31'116.2 21.9
2015-Mar-23 05:37N 27°05' W 045°31'0 0.0 21.9
2015-Mar-23 04:02N 27°05' W 045°31'1 0.5 21.9
2015-Mar-23 01:55N 27°04' W 045°31'0 0.0 21.9
2015-Mar-23 01:53N 27°04' W 045°31'0 0.0 21.9
2015-Mar-23 01:06N 27°04' W 045°31'1 0.3
2015-Mar-22 22:37N 27°04' W 045°30'0 0.0 21.9
2015-Mar-22 22:34N 27°04' W 045°30'0 0.2 21.9
2015-Mar-22 20:13N 27°04' W 045°30'0 0.0 21.8
2015-Mar-22 20:08N 27°04' W 045°30'3 0.5 21.8
2015-Mar-22 13:54N 27°05' W 045°27'0 0.1 21.7
2015-Mar-22 12:09N 27°04' W 045°27'014.7 21.7
2015-Mar-22 12:07N 27°04' W 045°26'1 0.3 21.7
2015-Mar-22 08:58N 27°04' W 045°25'1 0.5 21.7
2015-Mar-22 07:14N 27°05' W 045°25'2 0.6 21.7
2015-Mar-22 04:13N 27°06' W 045°24'1 0.1 21.7
2015-Mar-21 23:53N 27°06' W 045°25'1 0.8 21.7
2015-Mar-21 22:56N 27°07' W 045°25'139.9 21.7
2015-Mar-21 22:54N 27°06' W 045°24'0 0.0 21.7
2015-Mar-21 20:55N 27°06' W 045°24'2 0.3 21.7
2015-Mar-21 14:08N 27°06' W 045°22'1 0.3 21.6
2015-Mar-21 09:12N 27°06' W 045°20'0 0.7 21.5
2015-Mar-21 09:05N 27°06' W 045°20'1 1.4 21.5
2015-Mar-21 08:36N 27°06' W 045°20'2 0.9 21.5
2015-Mar-21 06:07N 27°08' W 045°18'0 2.4 21.5
2015-Mar-21 06:04N 27°08' W 045°18'4 0.8 21.5
2015-Mar-21 01:46N 27°12' W 045°18'1 0.8 21.6
2015-Mar-21 00:56N 27°12' W 045°19'0 0.0 21.6
2015-Mar-21 00:54N 27°12' W 045°19'0 0.5 21.6
2015-Mar-21 00:08N 27°12' W 045°19'1 0.6 21.6
2015-Mar-20 23:14N 27°13' W 045°18'1 0.2 21.6
2015-Mar-20 19:43N 27°13' W 045°19'0 0.6 21.7
2015-Mar-20 19:00N 27°13' W 045°19'0 0.0
2015-Mar-20 18:55N 27°13' W 045°19'1 0.4 21.7
2015-Mar-20 16:00N 27°14' W 045°18'0 5.7 21.7
2015-Mar-20 15:56N 27°14' W 045°19'1 0.2 21.7
2015-Mar-20 12:50N 27°14' W 045°18'0 0.0 21.5
2015-Mar-20 12:00N 27°14' W 045°18'218.7 21.5
2015-Mar-20 11:55N 27°14' W 045°16'0 0.0 21.5
2015-Mar-20 11:09N 27°14' W 045°16'2 0.9 21.5
2015-Mar-20 09:17N 27°15' W 045°15'0 0.0 21.5
2015-Mar-20 09:10N 27°15' W 045°15'1 0.3 21.5
2015-Mar-20 06:19N 27°16' W 045°15'112.3 21.5
2015-Mar-20 06:13N 27°17' W 045°14'1 0.1 21.5
2015-Mar-19 20:52N 27°18' W 045°13'0 0.7 22.0
2015-Mar-19 20:17N 27°18' W 045°13'1 5.4 22.0
2015-Mar-19 20:08N 27°18' W 045°14'1 1.0 22.0
2015-Mar-19 19:00N 27°18' W 045°13'0 0.1 22.0
2015-Mar-19 17:53N 27°18' W 045°13'0 0.1 22.0
2015-Mar-19 16:07N 27°18' W 045°13'0 0.2 21.7
2015-Mar-19 14:04N 27°18' W 045°12'1 0.3 21.7
2015-Mar-19 10:06N 27°17' W 045°12'2 0.7 21.5
2015-Mar-19 07:47N 27°17' W 045°10'1 8.4 21.5
2015-Mar-19 07:42N 27°17' W 045°09'0 0.0 21.5
2015-Mar-19 06:30N 27°17' W 045°09'1 8.5 21.5
2015-Mar-19 06:23N 27°18' W 045°09'0 0.0 21.5
2015-Mar-19 04:48N 27°18' W 045°09'111.1 21.5
2015-Mar-19 04:40N 27°19' W 045°08'0 0.0 21.5
2015-Mar-19 01:40N 27°19' W 045°08'1 9.9 21.5
2015-Mar-19 01:36N 27°19' W 045°07'1 1.2 21.5
2015-Mar-19 00:54N 27°19' W 045°08'0 0.2 21.5
2015-Mar-18 23:55N 27°19' W 045°08'1 1.5 21.5
2015-Mar-18 23:06N 27°20' W 045°07'0 0.0 21.6
2015-Mar-18 21:44N 27°20' W 045°07'0 0.2 21.6
2015-Mar-18 21:03N 27°20' W 045°07'114.3 21.6
2015-Mar-18 20:58N 27°21' W 045°06'1 7.2 21.6
2015-Mar-18 20:46N 27°20' W 045°07'110.8 21.7
2015-Mar-18 20:38N 27°21' W 045°06'0 0.0 21.7
2015-Mar-18 20:05N 27°21' W 045°06'0 0.0 21.7
2015-Mar-18 19:25N 27°21' W 045°06'0 0.0 21.7
2015-Mar-18 19:19N 27°21' W 045°06'0 0.1 21.7
2015-Mar-18 18:25N 27°21' W 045°06'0 0.0 21.7
2015-Mar-18 18:00N 27°21' W 045°06'   21.7
Track history (hours):
 
Tides and Currents Weather Stations Pressure Air Temp Water Temp Dewpoint Dewpoint Depression Visibility Wind Speed Wind Dir Waves Ship Positions

Drifting buoy 13526

Last reported at 2015-Mar-28 17:52 UTC. Time now 2015-Mar-28 18:49 UTC.
Position N 26°37' W 045°60'.

Water temperature 22.5 ° C

Date/timePositionNaut miles runAvg speedWind from/ knotsBaromVisibWave heightAir tempDewpointWater temp
2015-Mar-28 17:52N 26°37' W 045°60'1 0.4 22.5
2015-Mar-28 16:10N 26°37' W 046°00'1 0.8 22.5
2015-Mar-28 14:18N 26°38' W 045°59'1 0.7 22.4
2015-Mar-28 13:30N 26°38' W 045°59'0 0.4 22.4
2015-Mar-28 12:33N 26°38' W 045°58'0 5.6 22.4
2015-Mar-28 12:29N 26°39' W 045°59'1 1.0 22.4
2015-Mar-28 11:44N 26°39' W 045°59'0 0.0 22.4
2015-Mar-28 09:54N 26°39' W 045°59'0 0.9 22.4
2015-Mar-28 09:43N 26°39' W 045°59'0 4.1 22.4
2015-Mar-28 09:39N 26°39' W 045°59'0 1.5 22.4
2015-Mar-28 09:29N 26°40' W 045°58'0 6.5 22.4
2015-Mar-28 09:26N 26°40' W 045°58'1 6.5 22.4
2015-Mar-28 09:20N 26°40' W 045°59'0 0.0 22.4
2015-Mar-28 08:16N 26°40' W 045°59'0 0.8 22.4
2015-Mar-28 08:00N 26°40' W 045°59'0 0.6 22.3
2015-Mar-28 07:44N 26°40' W 045°59'0 0.0 22.3
2015-Mar-28 06:28N 26°40' W 045°59'0 3.9 22.3
2015-Mar-28 06:22N 26°40' W 045°58'0 0.0 22.3
2015-Mar-28 04:47N 26°40' W 045°58'1 0.4 22.3
2015-Mar-28 01:54N 26°41' W 045°57'0 7.9 22.3
2015-Mar-28 01:51N 26°41' W 045°57'0 0.0 22.3
2015-Mar-28 01:06N 26°41' W 045°57'0 2.6 22.3
2015-Mar-28 01:03N 26°41' W 045°57'0 0.1 22.3
2015-Mar-28 00:10N 26°41' W 045°57'1 1.1 22.3
2015-Mar-27 23:27N 26°42' W 045°57'112.1 22.3
2015-Mar-27 23:22N 26°42' W 045°56'0 0.0 22.3
2015-Mar-27 23:16N 26°42' W 045°56'0 0.0 22.3
2015-Mar-27 22:33N 26°42' W 045°56'0 0.0 22.3
2015-Mar-27 22:29N 26°42' W 045°56'0 0.4 22.3
2015-Mar-27 21:23N 26°43' W 045°56'0 0.0 22.3
2015-Mar-27 21:01N 26°43' W 045°56'138.8
2015-Mar-27 21:00N 26°43' W 045°57'0 0.0 22.3
2015-Mar-27 19:44N 26°43' W 045°57'1 1.3 22.3
2015-Mar-27 19:21N 26°43' W 045°56'0 0.0 22.3
2015-Mar-27 19:17N 26°43' W 045°56'1 0.5 22.3
2015-Mar-27 18:03N 26°43' W 045°55'0 0.8 22.3
2015-Mar-27 17:36N 26°43' W 045°55'0 0.0 22.3
2015-Mar-27 16:22N 26°43' W 045°55'1 0.6 22.4
2015-Mar-27 14:38N 26°43' W 045°54'0 0.0 22.4
2015-Mar-27 13:52N 26°43' W 045°54'1 5.0 22.4
2015-Mar-27 13:44N 26°43' W 045°53'1 1.6 22.4
2015-Mar-27 12:55N 26°43' W 045°52'126.4 22.4
2015-Mar-27 12:52N 26°43' W 045°53'0 0.0 22.4
2015-Mar-27 12:09N 26°43' W 045°53'110.4 22.4
2015-Mar-27 12:04N 26°44' W 045°53'0 0.0 22.4
2015-Mar-27 11:15N 26°44' W 045°53'0 9.3 22.4
2015-Mar-27 11:12N 26°44' W 045°52'0 0.0 22.4
2015-Mar-27 10:25N 26°44' W 045°52'1 2.1 22.4
2015-Mar-27 10:09N 26°43' W 045°52'0 4.6 22.4
2015-Mar-27 10:03N 26°43' W 045°52'0 0.0 22.4
2015-Mar-27 09:40N 26°43' W 045°52'1 5.2 22.3
2015-Mar-27 09:33N 26°43' W 045°52'0 0.0 22.3
2015-Mar-27 08:47N 26°43' W 045°52'1 1.7 22.2
2015-Mar-27 07:55N 26°44' W 045°51'014.4 22.2
2015-Mar-27 07:53N 26°43' W 045°51'1 0.7 22.1
2015-Mar-27 07:04N 26°44' W 045°50'0 0.9 22.1
2015-Mar-27 06:41N 26°44' W 045°50'1 9.5 22.0
2015-Mar-27 06:33N 26°44' W 045°49'0 0.0 22.0
2015-Mar-27 04:58N 26°44' W 045°49'2 0.8 21.9
2015-Mar-27 02:10N 26°46' W 045°47'1 0.6 21.7
2015-Mar-27 00:34N 26°47' W 045°47'1 0.4 21.7
2015-Mar-26 23:13N 26°47' W 045°47'0 0.6 21.7
2015-Mar-26 22:55N 26°47' W 045°47'222.7 21.7
2015-Mar-26 22:50N 26°49' W 045°46'1 0.8 21.7
2015-Mar-26 21:07N 26°50' W 045°47'0 0.0 21.7
2015-Mar-26 19:55N 26°50' W 045°47'0 0.0 21.8
2015-Mar-26 19:52N 26°50' W 045°47'119.9 21.8
2015-Mar-26 19:49N 26°50' W 045°46'1 0.2 21.8
2015-Mar-26 14:07N 26°50' W 045°47'1 0.1 21.7
2015-Mar-26 08:05N 26°51' W 045°48'0 0.3 21.7
2015-Mar-26 07:09N 26°51' W 045°48'1 0.3 21.7
2015-Mar-26 05:09N 26°51' W 045°48'1 9.7 21.7
2015-Mar-26 05:03N 26°52' W 045°47'0 0.0 21.7
2015-Mar-26 01:45N 26°52' W 045°47'1 0.7 22.0
2015-Mar-26 00:04N 26°52' W 045°48'1 1.4 22.2
2015-Mar-25 23:09N 26°51' W 045°47'0 0.0 22.2
2015-Mar-25 22:06N 26°51' W 045°47'1 0.4 22.3
2015-Mar-25 20:34N 26°51' W 045°48'0 0.6 22.4
2015-Mar-25 19:43N 26°51' W 045°47'0 0.0 22.6
2015-Mar-25 18:53N 26°51' W 045°47'1 1.6 22.6
2015-Mar-25 18:24N 26°51' W 045°46'0 8.0 22.6
2015-Mar-25 18:21N 26°52' W 045°47'1 1.8 22.6
2015-Mar-25 18:01N 26°51' W 045°47'0 0.3 22.6
2015-Mar-25 16:45N 26°51' W 045°47'1 8.8 22.5
2015-Mar-25 16:39N 26°51' W 045°46'0 0.1 22.5
2015-Mar-25 15:01N 26°51' W 045°46'0 0.2 22.2
2015-Mar-25 14:32N 26°51' W 045°46'0 0.0 22.2
2015-Mar-25 12:49N 26°51' W 045°46'1 0.7 22.0
2015-Mar-25 11:56N 26°52' W 045°45'0 6.5
2015-Mar-25 11:53N 26°52' W 045°45'0 0.1 21.9
2015-Mar-25 10:02N 26°52' W 045°45'0 0.0 21.8
2015-Mar-25 09:59N 26°52' W 045°45'0 1.0 21.8
2015-Mar-25 09:47N 26°52' W 045°45'0 0.4 21.8
2015-Mar-25 09:16N 26°52' W 045°45'1 4.7 21.8
2015-Mar-25 09:09N 26°52' W 045°44'1 0.7 21.8
2015-Mar-25 08:18N 26°52' W 045°44'0 7.3 21.8
2015-Mar-25 08:15N 26°52' W 045°44'0 0.0 21.8
2015-Mar-25 07:33N 26°52' W 045°44'0 0.0 21.8
2015-Mar-25 07:04N 26°52' W 045°44'0 0.0 21.8
2015-Mar-25 06:55N 26°52' W 045°44'2 6.6 21.8
2015-Mar-25 06:40N 26°53' W 045°42'0 0.0 21.8
2015-Mar-25 05:22N 26°53' W 045°42'0 0.0 21.9
2015-Mar-25 05:14N 26°53' W 045°42'0 0.0 21.9
2015-Mar-25 03:40N 26°53' W 045°42'1 0.4 22.0
2015-Mar-25 01:18N 26°54' W 045°43'0 4.3 22.2
2015-Mar-25 01:12N 26°55' W 045°43'0 0.0 22.2
2015-Mar-25 00:30N 26°55' W 045°43'1 0.3 22.2
2015-Mar-24 20:56N 26°55' W 045°42'0 0.0 22.3
2015-Mar-24 19:56N 26°55' W 045°42'124.0 22.3
2015-Mar-24 19:53N 26°55' W 045°43'3 1.7 22.3
2015-Mar-24 18:13N 26°56' W 045°40'0 0.0 22.3
2015-Mar-24 16:55N 26°56' W 045°40'1 0.3 22.3
2015-Mar-24 15:14N 26°56' W 045°40'0 0.1 22.1
2015-Mar-24 13:59N 26°56' W 045°40'0 0.0 22.0
2015-Mar-24 13:09N 26°56' W 045°40'2 0.6 22.0
2015-Mar-24 10:09N 26°58' W 045°38'1 0.4 21.9
2015-Mar-24 08:40N 26°58' W 045°38'1 0.8 21.9
2015-Mar-24 08:01N 26°59' W 045°38'1 0.7 21.9
2015-Mar-24 07:09N 26°59' W 045°38'0 0.9 21.9
2015-Mar-24 06:52N 26°59' W 045°38'1 0.1 21.9
2015-Mar-24 01:38N 26°60' W 045°38'1 0.7 22.0
2015-Mar-24 00:50N 27°00' W 045°37'1 1.1 22.0
2015-Mar-23 23:55N 26°60' W 045°38'2 2.4 22.0
2015-Mar-23 23:09N 27°00' W 045°36'0 0.0 22.1
2015-Mar-23 23:05N 27°00' W 045°36'0 0.1 22.1
2015-Mar-23 20:07N 27°00' W 045°36'0 0.0 22.2
2015-Mar-23 19:48N 27°00' W 045°36'1 0.6 22.2
2015-Mar-23 18:44N 27°00' W 045°36'1 0.7 22.2
2015-Mar-23 17:07N 27°01' W 045°35'2 0.5 22.2
2015-Mar-23 13:36N 27°02' W 045°33'0 0.2 22.0
2015-Mar-23 11:55N 27°01' W 045°33'1 8.4 22.0
2015-Mar-23 11:51N 27°02' W 045°33'2 1.8 22.0
2015-Mar-23 10:59N 27°02' W 045°32'0 0.0 22.0
2015-Mar-23 10:06N 27°02' W 045°32'0 0.2 21.9
2015-Mar-23 09:09N 27°02' W 045°32'0 1.2 21.9
2015-Mar-23 08:47N 27°03' W 045°32'1 0.5 21.9
2015-Mar-23 06:59N 27°03' W 045°31'0 0.0 21.9
2015-Mar-23 05:42N 27°03' W 045°31'116.2 21.9
2015-Mar-23 05:37N 27°05' W 045°31'0 0.0 21.9
2015-Mar-23 04:02N 27°05' W 045°31'1 0.5 21.9
2015-Mar-23 01:55N 27°04' W 045°31'0 0.0 21.9
2015-Mar-23 01:53N 27°04' W 045°31'0 0.0 21.9
2015-Mar-23 01:06N 27°04' W 045°31'1 0.3
2015-Mar-22 22:37N 27°04' W 045°30'0 0.0 21.9
2015-Mar-22 22:34N 27°04' W 045°30'0 0.2 21.9
2015-Mar-22 20:13N 27°04' W 045°30'0 0.0 21.8
2015-Mar-22 20:08N 27°04' W 045°30'3 0.5 21.8
2015-Mar-22 13:54N 27°05' W 045°27'0 0.1 21.7
2015-Mar-22 12:09N 27°04' W 045°27'014.7 21.7
2015-Mar-22 12:07N 27°04' W 045°26'1 0.3 21.7
2015-Mar-22 08:58N 27°04' W 045°25'1 0.5 21.7
2015-Mar-22 07:14N 27°05' W 045°25'2 0.6 21.7
2015-Mar-22 04:13N 27°06' W 045°24'1 0.1 21.7
2015-Mar-21 23:53N 27°06' W 045°25'1 0.8 21.7
2015-Mar-21 22:56N 27°07' W 045°25'139.9 21.7
2015-Mar-21 22:54N 27°06' W 045°24'0 0.0 21.7
2015-Mar-21 20:55N 27°06' W 045°24'2 0.3 21.7
2015-Mar-21 14:08N 27°06' W 045°22'1 0.3 21.6
2015-Mar-21 09:12N 27°06' W 045°20'0 0.7 21.5
2015-Mar-21 09:05N 27°06' W 045°20'1 1.4 21.5
2015-Mar-21 08:36N 27°06' W 045°20'2 0.9 21.5
2015-Mar-21 06:07N 27°08' W 045°18'0 2.4 21.5
2015-Mar-21 06:04N 27°08' W 045°18'4 0.8 21.5
2015-Mar-21 01:46N 27°12' W 045°18'1 0.8 21.6
2015-Mar-21 00:56N 27°12' W 045°19'0 0.0 21.6
2015-Mar-21 00:54N 27°12' W 045°19'0 0.5 21.6
2015-Mar-21 00:08N 27°12' W 045°19'1 0.6 21.6
2015-Mar-20 23:14N 27°13' W 045°18'1 0.2 21.6
2015-Mar-20 19:43N 27°13' W 045°19'0 0.6 21.7
2015-Mar-20 19:00N 27°13' W 045°19'0 0.0
2015-Mar-20 18:55N 27°13' W 045°19'1 0.4 21.7
2015-Mar-20 16:00N 27°14' W 045°18'0 5.7 21.7
2015-Mar-20 15:56N 27°14' W 045°19'1 0.2 21.7
2015-Mar-20 12:50N 27°14' W 045°18'0 0.0 21.5
2015-Mar-20 12:00N 27°14' W 045°18'218.7 21.5
2015-Mar-20 11:55N 27°14' W 045°16'0 0.0 21.5
2015-Mar-20 11:09N 27°14' W 045°16'2 0.9 21.5
2015-Mar-20 09:17N 27°15' W 045°15'0 0.0 21.5
2015-Mar-20 09:10N 27°15' W 045°15'1 0.3 21.5
2015-Mar-20 06:19N 27°16' W 045°15'112.3 21.5
2015-Mar-20 06:13N 27°17' W 045°14'1 0.1 21.5
2015-Mar-19 20:52N 27°18' W 045°13'0 0.7 22.0
2015-Mar-19 20:17N 27°18' W 045°13'1 5.4 22.0
2015-Mar-19 20:08N 27°18' W 045°14'1 1.0 22.0
2015-Mar-19 19:00N 27°18' W 045°13'0 0.1 22.0
2015-Mar-19 17:53N 27°18' W 045°13'0 0.1 22.0
2015-Mar-19 16:07N 27°18' W 045°13'0 0.2 21.7
2015-Mar-19 14:04N 27°18' W 045°12'1 0.3 21.7
2015-Mar-19 10:06N 27°17' W 045°12'2 0.7 21.5
2015-Mar-19 07:47N 27°17' W 045°10'1 8.4 21.5
2015-Mar-19 07:42N 27°17' W 045°09'0 0.0 21.5
2015-Mar-19 06:30N 27°17' W 045°09'1 8.5 21.5
2015-Mar-19 06:23N 27°18' W 045°09'0 0.0 21.5
2015-Mar-19 04:48N 27°18' W 045°09'111.1 21.5
2015-Mar-19 04:40N 27°19' W 045°08'0 0.0 21.5
2015-Mar-19 01:40N 27°19' W 045°08'1 9.9 21.5
2015-Mar-19 01:36N 27°19' W 045°07'1 1.2 21.5
2015-Mar-19 00:54N 27°19' W 045°08'0 0.2 21.5
2015-Mar-18 23:55N 27°19' W 045°08'1 1.5 21.5
2015-Mar-18 23:06N 27°20' W 045°07'0 0.0 21.6
2015-Mar-18 21:44N 27°20' W 045°07'0 0.2 21.6
2015-Mar-18 21:03N 27°20' W 045°07'114.3 21.6
2015-Mar-18 20:58N 27°21' W 045°06'1 7.2 21.6
2015-Mar-18 20:46N 27°20' W 045°07'110.8 21.7
2015-Mar-18 20:38N 27°21' W 045°06'0 0.0 21.7
2015-Mar-18 20:05N 27°21' W 045°06'0 0.0 21.7
2015-Mar-18 19:25N 27°21' W 045°06'0 0.0 21.7
2015-Mar-18 19:19N 27°21' W 045°06'0 0.1 21.7
2015-Mar-18 18:25N 27°21' W 045°06'0 0.0 21.7
2015-Mar-18 18:00N 27°21' W 045°06'   21.7

Dump ship's entire track history